createdAt,value
2022-11-03T00:02:06.949Z,100821.91
2022-11-03T00:04:34.033Z,100818.94
2022-11-03T00:07:00.992Z,100823.13
2022-11-03T00:09:27.944Z,100826.91
2022-11-03T00:11:54.926Z,100826.38
2022-11-03T00:14:21.861Z,100823.25
2022-11-03T00:16:49.123Z,100823.59
2022-11-03T00:19:17.394Z,100824.41
2022-11-03T00:21:45.253Z,100808.19
2022-11-03T00:24:13.050Z,100822.16
2022-11-03T00:26:40.502Z,100826.44
2022-11-03T00:29:11.521Z,100831.97
2022-11-03T00:31:40.947Z,100834.28
2022-11-03T00:34:09.054Z,100834.97
2022-11-03T00:36:39.597Z,100836.50
2022-11-03T00:39:07.104Z,100837.28
2022-11-03T00:41:34.543Z,100831.38
2022-11-03T00:44:01.637Z,100829.00
2022-11-03T00:46:30.450Z,100845.09
2022-11-03T00:48:57.473Z,100825.78
2022-11-03T00:51:30.094Z,100838.66
2022-11-03T00:53:59.672Z,100848.81
2022-11-03T00:56:26.462Z,100841.59
2022-11-03T00:58:55.153Z,100842.56
2022-11-03T01:01:46.005Z,100850.03
2022-11-03T01:04:34.901Z,100847.50
2022-11-03T01:07:03.632Z,100853.59
2022-11-03T01:09:39.376Z,100847.63
2022-11-03T01:12:15.375Z,100850.88
2022-11-03T01:14:50.765Z,100851.19
2022-11-03T01:17:21.540Z,100858.56
2022-11-03T01:19:49.020Z,100862.88
2022-11-03T01:22:17.680Z,100858.88
2022-11-03T01:24:45.477Z,100855.34
2022-11-03T01:27:19.246Z,100856.78
2022-11-03T01:29:46.538Z,100858.06
2022-11-03T01:32:13.694Z,100862.56
2022-11-03T01:34:40.754Z,100859.34
2022-11-03T01:37:08.287Z,100860.00
2022-11-03T01:39:35.563Z,100859.25
2022-11-03T01:42:02.605Z,100857.31
2022-11-03T01:44:37.640Z,100862.72
2022-11-03T01:47:24.566Z,100859.34
2022-11-03T01:50:11.389Z,100855.91
2022-11-03T01:52:43.006Z,100860.41
2022-11-03T01:55:24.469Z,100862.81
2022-11-03T01:58:07.351Z,100863.13
2022-11-03T02:00:35.924Z,100861.88
2022-11-03T02:03:03.774Z,100857.81
2022-11-03T02:05:31.110Z,100856.63
2022-11-03T02:08:26.038Z,100855.72
2022-11-03T02:10:53.006Z,100857.09
2022-11-03T02:13:24.287Z,100867.78
2022-11-03T02:15:55.297Z,100868.44
2022-11-03T02:18:29.055Z,100868.75
2022-11-03T02:21:52.749Z,100867.47
2022-11-03T02:52:05.241Z,100882.19
2022-11-03T02:54:44.985Z,100878.63
2022-11-03T03:00:20.821Z,100884.13
2022-11-03T03:03:13.491Z,100885.38
2022-11-03T03:05:47.890Z,100889.09
2022-11-03T03:08:15.625Z,100894.38
2022-11-03T03:56:36.101Z,100914.34
2022-11-03T04:02:30.486Z,100921.31
2022-11-03T04:41:28.580Z,100929.50
2022-11-03T04:46:54.484Z,100932.44
2022-11-03T04:52:21.962Z,100919.31
2022-11-03T05:00:41.055Z,100926.22
2022-11-03T05:03:17.645Z,100916.91
2022-11-03T05:05:44.624Z,100923.06
2022-11-03T05:08:12.576Z,100921.28
2022-11-03T05:10:39.927Z,100932.03
2022-11-03T05:13:21.398Z,100929.41
2022-11-03T05:15:49.637Z,100932.78
2022-11-03T05:18:29.722Z,100940.47
2022-11-03T05:21:02.761Z,100940.13
2022-11-03T05:23:37.043Z,100943.72
2022-11-03T05:26:07.499Z,100934.06
2022-11-03T05:28:39.688Z,100941.84
2022-11-03T05:31:30.735Z,100938.06
2022-11-03T05:34:21.612Z,100937.19
2022-11-03T05:36:48.653Z,100933.03
2022-11-03T05:39:36.864Z,100939.09
2022-11-03T05:42:32.885Z,100941.78
2022-11-03T05:45:03.318Z,100935.91
2022-11-03T05:47:40.777Z,100932.59
2022-11-03T05:50:25.446Z,100937.78
2022-11-03T05:52:58.832Z,100938.44
2022-11-03T05:55:33.616Z,100933.84
2022-11-03T05:58:12.188Z,100935.53
2022-11-03T06:00:48.165Z,100932.78
2022-11-03T06:03:38.851Z,100944.34
2022-11-03T06:06:34.974Z,100947.06
2022-11-03T06:09:09.635Z,100952.72
2022-11-03T06:11:37.424Z,100958.00
2022-11-03T06:14:26.452Z,100961.81
2022-11-03T06:17:10.657Z,100959.84
2022-11-03T06:19:48.017Z,100963.94
2022-11-03T06:22:24.544Z,100961.06
2022-11-03T06:24:56.050Z,100968.00
2022-11-03T06:27:25.142Z,100966.75
2022-11-03T06:30:31.430Z,100968.31
2022-11-03T06:33:04.676Z,100963.00
2022-11-03T06:35:31.906Z,100961.50
2022-11-03T06:38:00.254Z,100974.63
2022-11-03T06:40:37.164Z,100971.31
2022-11-03T06:43:41.756Z,100974.41
2022-11-03T07:01:34.943Z,100978.41
2022-11-03T07:04:20.636Z,100973.75
2022-11-03T07:06:52.996Z,100977.00
2022-11-03T07:09:26.002Z,100972.84
2022-11-03T07:12:00.799Z,100974.19
2022-11-03T07:14:31.687Z,100967.94
2022-11-03T07:17:11.943Z,100970.38
2022-11-03T07:19:43.678Z,100966.31
2022-11-03T07:22:26.129Z,100972.72
2022-11-03T07:24:59.577Z,100966.56
2022-11-03T07:27:36.240Z,100970.31
2022-11-03T07:30:17.862Z,100970.50
2022-11-03T07:32:44.855Z,100963.53
2022-11-03T07:35:18.059Z,100968.84
2022-11-03T07:37:46.644Z,100966.78
2022-11-03T07:40:25.065Z,100963.59
2022-11-03T07:42:55.308Z,100962.94
2022-11-03T07:45:53.727Z,100954.31
2022-11-03T07:48:44.078Z,100953.41
2022-11-03T07:51:28.579Z,100952.88
2022-11-03T07:54:20.122Z,100956.38
2022-11-03T07:56:54.359Z,100960.34
2022-11-03T07:59:37.075Z,100960.41
2022-11-03T08:02:25.954Z,100956.09
2022-11-03T08:04:52.978Z,100954.38
2022-11-03T08:07:19.899Z,100949.16
2022-11-03T08:09:46.809Z,100952.56
2022-11-03T08:12:13.781Z,100945.59
2022-11-03T08:14:40.690Z,100950.97
2022-11-03T08:17:07.756Z,100944.72
2022-11-03T08:19:34.813Z,100937.56
2022-11-03T08:22:01.876Z,100944.69
2022-11-03T08:24:28.905Z,100936.63
2022-11-03T08:26:55.851Z,100940.16
2022-11-03T08:29:25.053Z,100941.94
2022-11-03T08:31:51.961Z,100950.00
2022-11-03T08:34:18.990Z,100948.81
2022-11-03T08:36:46.099Z,100937.06
2022-11-03T08:39:13.151Z,100936.75
2022-11-03T08:41:40.140Z,100942.16
2022-11-03T08:44:07.113Z,100943.03
2022-11-03T08:46:34.026Z,100938.63
2022-11-03T08:49:01.040Z,100947.81
2022-11-03T08:51:27.969Z,100936.88
2022-11-03T08:53:55.218Z,100934.88
2022-11-03T08:56:22.869Z,100936.81
2022-11-03T08:58:50.545Z,100931.00
2022-11-03T09:01:17.577Z,100932.16
2022-11-03T09:03:44.751Z,100927.66
2022-11-03T09:06:11.696Z,100936.09
2022-11-03T09:11:25.655Z,100929.16
2022-11-03T09:13:52.553Z,100929.66
2022-11-03T09:16:19.738Z,100932.25
2022-11-03T09:18:46.801Z,100934.00
2022-11-03T09:21:14.969Z,100928.44
2022-11-03T09:23:42.206Z,100932.91
2022-11-03T09:26:09.295Z,100934.25
2022-11-03T09:28:36.259Z,100921.44
2022-11-03T09:31:03.212Z,100925.84
2022-11-03T09:33:30.197Z,100925.00
2022-11-03T09:35:57.108Z,100922.97
2022-11-03T09:38:24.072Z,100922.94
2022-11-03T09:40:51.061Z,100921.03
2022-11-03T09:43:18.520Z,100916.41
2022-11-03T09:45:45.525Z,100917.38
2022-11-03T09:48:13.576Z,100919.88
2022-11-03T09:50:41.923Z,100906.66
2022-11-03T09:53:12.906Z,100900.69
2022-11-03T09:55:40.465Z,100903.06
2022-11-03T09:58:17.291Z,100907.41
2022-11-03T10:00:45.249Z,100902.19
2022-11-03T10:03:14.717Z,100901.28
2022-11-03T10:05:44.480Z,100892.94
2022-11-03T10:08:31.070Z,100893.22
2022-11-03T10:10:59.073Z,100894.41
2022-11-03T10:13:49.784Z,100886.91
2022-11-03T10:16:21.334Z,100880.81
2022-11-03T10:18:49.427Z,100881.28
2022-11-03T10:21:22.332Z,100878.50
2022-11-03T10:23:50.442Z,100879.66
2022-11-03T10:26:20.006Z,100877.31
2022-11-03T10:29:05.434Z,100866.66
2022-11-03T10:31:42.440Z,100871.34
2022-11-03T10:34:35.226Z,100865.28
2022-11-03T10:37:19.574Z,100872.94
2022-11-03T10:39:48.010Z,100874.66
2022-11-03T10:42:30.591Z,100875.31
2022-11-03T10:45:19.976Z,100864.44
2022-11-03T10:48:01.825Z,100861.41
2022-11-03T10:50:28.995Z,100864.84
2022-11-03T10:52:56.057Z,100864.00
2022-11-03T10:55:26.598Z,100854.66
2022-11-03T10:57:58.262Z,100854.88
2022-11-03T11:00:25.416Z,100858.28
2022-11-03T11:03:00.275Z,100853.41
2022-11-03T11:05:27.467Z,100837.59
2022-11-03T11:07:55.760Z,100845.59
2022-11-03T11:10:29.224Z,100837.44
2022-11-03T11:13:12.495Z,100833.06
2022-11-03T11:15:46.949Z,100833.38
2022-11-03T11:18:28.937Z,100829.25
2022-11-03T11:20:57.741Z,100824.88
2022-11-03T11:23:27.628Z,100818.78
2022-11-03T11:26:09.770Z,100813.38
2022-11-03T11:29:08.201Z,100812.69
2022-11-03T11:31:45.084Z,100817.78
2022-11-03T11:34:22.056Z,100813.41
2022-11-03T11:36:55.087Z,100802.28
2022-11-03T11:39:27.886Z,100805.50
2022-11-03T11:42:09.960Z,100801.44
2022-11-03T11:44:54.094Z,100800.44
2022-11-03T11:47:50.002Z,100797.97
2022-11-03T11:50:31.423Z,100788.16
2022-11-03T11:53:07.649Z,100790.88
2022-11-03T11:56:04.882Z,100780.19
2022-11-03T11:58:50.028Z,100780.19
2022-11-03T12:01:36.609Z,100778.34
2022-11-03T12:04:31.313Z,100779.84
2022-11-03T12:06:58.684Z,100780.53
2022-11-03T12:09:28.098Z,100775.19
2022-11-03T12:12:08.002Z,100778.56
2022-11-03T12:14:38.721Z,100775.94
2022-11-03T12:17:14.640Z,100777.81
2022-11-03T12:19:50.085Z,100763.53
2022-11-03T12:22:26.260Z,100761.63
2022-11-03T12:25:00.883Z,100759.50
2022-11-03T12:27:27.708Z,100756.09
2022-11-03T12:29:58.166Z,100756.97
2022-11-03T12:32:33.667Z,100756.78
2022-11-03T12:35:08.262Z,100744.13
2022-11-03T12:37:35.544Z,100762.59
2022-11-03T12:40:02.598Z,100749.25
2022-11-03T12:42:29.676Z,100755.50
2022-11-03T12:44:56.633Z,100756.53
2022-11-03T12:47:23.637Z,100745.97
2022-11-03T12:49:50.623Z,100749.50
2022-11-03T12:52:17.607Z,100744.72
2022-11-03T12:54:44.607Z,100748.13
2022-11-03T12:57:11.543Z,100746.25
2022-11-03T12:59:39.887Z,100747.91
2022-11-03T13:02:08.641Z,100743.50
2022-11-03T13:04:35.728Z,100746.09
2022-11-03T13:07:02.987Z,100737.69
2022-11-03T13:09:29.981Z,100741.25
2022-11-03T13:12:15.761Z,100744.81
2022-11-03T13:14:45.958Z,100741.97
2022-11-03T13:17:15.024Z,100734.28
2022-11-03T13:19:42.138Z,100745.09
2022-11-03T13:22:09.091Z,100741.34
2022-11-03T13:24:36.078Z,100736.72
2022-11-03T13:27:03.173Z,100734.59
2022-11-03T13:29:35.091Z,100741.78
2022-11-03T13:32:06.446Z,100730.75
2022-11-03T13:34:33.365Z,100733.50
2022-11-03T13:37:00.682Z,100732.41
2022-11-03T13:39:27.657Z,100722.88
2022-11-03T13:41:54.577Z,100719.56
2022-11-03T13:50:14.659Z,100712.38
2022-11-03T13:52:42.252Z,100714.88
2022-11-03T14:00:45.768Z,100702.59
2022-11-03T14:05:59.832Z,100710.94
2022-11-03T14:08:26.840Z,100706.38
2022-11-03T14:10:53.810Z,100714.09
2022-11-03T14:13:20.705Z,100704.44
2022-11-03T14:15:47.627Z,100693.94
2022-11-03T14:18:14.802Z,100699.94
2022-11-03T14:20:41.732Z,100699.56
2022-11-03T14:23:09.013Z,100704.31
2022-11-03T14:25:36.178Z,100690.81
2022-11-03T14:28:03.252Z,100696.88
2022-11-03T14:30:30.222Z,100701.97
2022-11-03T14:33:06.923Z,100696.44
2022-11-03T14:35:34.240Z,100689.53
2022-11-03T14:38:01.261Z,100687.53
2022-11-03T14:40:46.952Z,100678.41
2022-11-03T14:43:13.869Z,100690.88
2022-11-03T14:45:42.594Z,100683.91
2022-11-03T14:48:10.145Z,100665.47
2022-11-03T14:50:37.223Z,100676.59
2022-11-03T14:53:04.138Z,100672.16
2022-11-03T14:55:31.059Z,100673.94
2022-11-03T14:57:58.006Z,100679.13
2022-11-03T15:00:24.996Z,100652.00
2022-11-03T15:02:52.123Z,100663.34
2022-11-03T15:05:37.576Z,100673.03
2022-11-03T15:08:04.785Z,100666.66
2022-11-03T15:10:31.995Z,100669.91
2022-11-03T15:12:58.955Z,100669.66
2022-11-03T15:15:25.871Z,100676.38
2022-11-03T15:17:52.961Z,100663.19
2022-11-03T15:20:20.031Z,100668.72
2022-11-03T15:25:36.256Z,100662.84
2022-11-03T15:28:03.405Z,100659.88
2022-11-03T15:30:30.413Z,100666.38
2022-11-03T15:32:57.758Z,100663.59
2022-11-03T15:35:25.060Z,100656.53
2022-11-03T15:37:53.004Z,100653.75
2022-11-03T15:40:20.236Z,100651.38
2022-11-03T15:42:47.418Z,100650.50
2022-11-03T15:45:15.361Z,100640.59
2022-11-03T15:47:42.618Z,100639.00
2022-11-03T15:50:11.805Z,100637.81
2022-11-03T15:52:39.217Z,100622.72
2022-11-03T15:55:07.780Z,100627.88
2022-11-03T15:57:35.115Z,100634.41
2022-11-03T16:00:03.707Z,100635.19
2022-11-03T16:02:46.135Z,100640.34
2022-11-03T16:05:13.772Z,100634.38
2022-11-03T16:07:40.918Z,100630.44
2022-11-03T16:10:08.487Z,100627.34
2022-11-03T16:12:36.274Z,100624.81
2022-11-03T16:15:04.099Z,100621.56
2022-11-03T16:17:31.004Z,100618.19
2022-11-03T16:19:57.946Z,100613.28
2022-11-03T16:22:24.864Z,100613.72
2022-11-03T16:24:51.920Z,100620.06
2022-11-03T16:27:18.962Z,100604.09
2022-11-03T16:29:45.894Z,100600.44
2022-11-03T16:32:13.052Z,100603.88
2022-11-03T16:34:40.031Z,100610.63
2022-11-03T16:37:07.001Z,100603.09
2022-11-03T16:39:34.083Z,100609.00
2022-11-03T16:42:03.220Z,100601.50
2022-11-03T16:44:30.391Z,100602.22
2022-11-03T16:46:57.374Z,100592.81
2022-11-03T16:49:24.297Z,100589.63
2022-11-03T16:51:51.208Z,100582.94
2022-11-03T16:54:18.254Z,100565.94
2022-11-03T16:56:47.595Z,100570.97
2022-11-03T16:59:17.626Z,100544.97
2022-11-03T17:01:44.717Z,100557.03
2022-11-03T17:04:11.793Z,100560.13
2022-11-03T17:06:38.740Z,100556.41
2022-11-03T17:09:05.748Z,100553.63
2022-11-03T17:11:36.181Z,100545.38
2022-11-03T17:14:09.181Z,100538.94
2022-11-03T17:16:36.220Z,100529.03
2022-11-03T17:19:03.484Z,100528.56
2022-11-03T17:21:30.431Z,100515.47
2022-11-03T17:23:59.322Z,100521.53
2022-11-03T17:26:40.392Z,100517.16
2022-11-03T17:29:17.557Z,100519.25
2022-11-03T17:31:44.545Z,100504.59
2022-11-03T17:34:14.459Z,100526.59
2022-11-03T17:36:41.546Z,100524.84
2022-11-03T17:39:12.699Z,100526.69
2022-11-03T17:41:39.680Z,100528.47
2022-11-03T17:44:12.118Z,100530.34
2022-11-03T17:46:39.798Z,100524.13
2022-11-03T17:49:06.802Z,100521.31
2022-11-03T17:51:37.309Z,100507.81
2022-11-03T17:54:08.223Z,100516.56
2022-11-03T17:56:35.787Z,100518.91
2022-11-03T17:59:03.082Z,100522.78
2022-11-03T18:01:30.231Z,100527.03
2022-11-03T18:03:57.812Z,100518.25
2022-11-03T18:06:25.541Z,100519.59
2022-11-03T18:08:52.616Z,100506.25
2022-11-03T18:11:46.951Z,100526.88
2022-11-03T18:14:14.369Z,100525.41
2022-11-03T18:16:41.430Z,100529.00
2022-11-03T18:19:17.516Z,100523.34
2022-11-03T18:21:45.165Z,100517.16
2022-11-03T18:24:18.985Z,100512.72
2022-11-03T18:26:46.132Z,100511.88
2022-11-03T18:29:13.316Z,100517.50
2022-11-03T18:31:49.689Z,100513.78
2022-11-03T18:34:22.493Z,100502.47
2022-11-03T18:36:50.018Z,100494.97
2022-11-03T18:39:27.912Z,100494.78
2022-11-03T18:41:55.716Z,100493.00
2022-11-03T18:44:30.883Z,100487.16
2022-11-03T18:46:58.645Z,100489.22
2022-11-03T18:49:27.582Z,100491.66
2022-11-03T18:52:03.095Z,100476.75
2022-11-03T18:54:32.358Z,100478.00
2022-11-03T18:56:59.798Z,100474.97
2022-11-03T18:59:33.267Z,100472.97
2022-11-03T19:02:00.518Z,100469.00
2022-11-03T19:04:27.646Z,100460.41
2022-11-03T19:06:54.832Z,100453.91
2022-11-03T19:09:26.974Z,100449.50
2022-11-03T19:11:57.641Z,100450.50
2022-11-03T19:14:35.705Z,100452.34
2022-11-03T19:17:24.671Z,100443.00
2022-11-03T19:19:53.817Z,100440.94
2022-11-03T19:22:23.222Z,100438.47
2022-11-03T19:24:52.744Z,100442.84
2022-11-03T19:27:25.649Z,100427.56
2022-11-03T19:29:53.642Z,100437.06
2022-11-03T19:32:28.077Z,100432.47
2022-11-03T19:35:32.494Z,100432.56
2022-11-03T19:38:10.780Z,100420.34
2022-11-03T19:40:59.937Z,100419.81
2022-11-03T19:43:31.832Z,100412.41
2022-11-03T19:46:01.478Z,100421.09
2022-11-03T19:48:32.382Z,100416.41
2022-11-03T19:50:59.611Z,100413.56
2022-11-03T19:53:29.094Z,100412.56
2022-11-03T19:55:56.749Z,100403.63
2022-11-03T19:58:27.931Z,100399.94
2022-11-03T20:00:55.868Z,100403.81
2022-11-03T20:03:24.301Z,100399.97
2022-11-03T20:05:56.795Z,100389.31
2022-11-03T20:08:28.779Z,100398.00
2022-11-03T20:10:56.068Z,100396.94
2022-11-03T20:13:28.784Z,100394.94
2022-11-03T20:16:00.566Z,100386.81
2022-11-03T20:18:28.848Z,100387.06
2022-11-03T20:20:56.265Z,100385.81
2022-11-03T20:23:29.997Z,100384.19
2022-11-03T20:25:57.654Z,100380.72
2022-11-03T20:28:28.659Z,100385.19
2022-11-03T20:30:57.140Z,100382.19
2022-11-03T20:33:25.251Z,100381.72
2022-11-03T20:35:54.002Z,100386.06
2022-11-03T20:38:22.835Z,100378.16
2022-11-03T20:40:58.190Z,100369.28
2022-11-03T20:43:30.662Z,100366.56
2022-11-03T20:45:59.126Z,100362.50
2022-11-03T20:48:26.280Z,100349.22
2022-11-03T20:50:54.595Z,100357.69
2022-11-03T20:53:24.260Z,100344.66
2022-11-03T20:55:52.452Z,100343.91
2022-11-03T20:58:19.593Z,100346.19
2022-11-03T21:00:48.465Z,100344.97
2022-11-03T21:03:57.707Z,100351.47
2022-11-03T21:06:18.462Z,100336.69
2022-11-03T21:08:47.396Z,100328.69
2022-11-03T21:11:27.990Z,100320.59
2022-11-03T21:14:00.419Z,100320.47
2022-11-03T21:16:48.378Z,100315.38
2022-11-03T21:19:37.959Z,100312.94
2022-11-03T21:25:18.104Z,100297.59
2022-11-03T21:27:46.228Z,100292.22
2022-11-03T21:30:15.751Z,100270.28
2022-11-03T21:32:43.146Z,100285.81
2022-11-03T21:35:16.238Z,100283.88
2022-11-03T21:37:43.209Z,100283.44
2022-11-03T21:40:11.221Z,100289.75
2022-11-03T21:42:56.925Z,100276.38
2022-11-03T21:45:24.015Z,100278.34
2022-11-03T21:48:13.462Z,100276.50
2022-11-03T21:50:41.035Z,100267.91
2022-11-03T21:53:08.370Z,100271.78
2022-11-03T21:55:35.913Z,100272.78
2022-11-03T21:58:03.706Z,100273.44
2022-11-03T22:00:32.052Z,100279.75
2022-11-03T22:03:00.086Z,100267.72
2022-11-03T22:05:27.486Z,100263.41
2022-11-03T22:07:54.481Z,100266.59
2022-11-03T22:10:21.485Z,100257.38
2022-11-03T22:12:48.713Z,100258.91
2022-11-03T22:15:34.173Z,100256.06
2022-11-03T22:18:10.051Z,100258.03
2022-11-03T22:21:13.069Z,100255.91
2022-11-03T22:23:58.971Z,100254.31
2022-11-03T22:26:44.387Z,100248.59
2022-11-03T22:29:40.680Z,100245.66
2022-11-03T22:32:15.180Z,100230.06
2022-11-03T22:35:01.051Z,100239.47
2022-11-03T22:40:13.623Z,100218.28
2022-11-03T22:42:59.253Z,100229.16
2022-11-03T22:45:44.665Z,100228.13
2022-11-03T22:48:12.746Z,100219.66
2022-11-03T22:50:40.119Z,100214.59
2022-11-03T22:53:26.048Z,100215.06
2022-11-03T22:55:53.764Z,100224.66
2022-11-03T22:58:20.695Z,100221.78
2022-11-03T23:00:47.723Z,100224.38
2022-11-03T23:03:14.826Z,100219.03
2022-11-03T23:05:42.897Z,100209.06
2022-11-03T23:08:09.990Z,100205.75
2022-11-03T23:10:36.931Z,100199.09
2022-11-03T23:13:04.147Z,100200.03
2022-11-03T23:15:34.174Z,100197.22
2022-11-03T23:18:22.794Z,100190.06
2022-11-03T23:21:08.297Z,100183.22
2022-11-03T23:23:56.851Z,100186.41
2022-11-03T23:26:26.960Z,100186.63
2022-11-03T23:28:54.314Z,100186.88
2022-11-03T23:31:21.385Z,100184.72
2022-11-03T23:33:49.552Z,100183.00
2022-11-03T23:36:18.140Z,100176.78
2022-11-03T23:38:46.193Z,100169.47
2022-11-03T23:41:16.609Z,100176.53
2022-11-03T23:43:44.690Z,100175.34
2022-11-03T23:46:39.465Z,100168.00
2022-11-03T23:49:07.448Z,100159.78
2022-11-03T23:51:36.855Z,100159.44
2022-11-03T23:54:06.827Z,100158.94
2022-11-03T23:57:04.594Z,100159.28
2022-11-03T23:59:34.218Z,100159.97
